createdAt,value
2022-09-13T00:01:27.339Z,14.70
2022-09-13T00:04:32.779Z,14.66
2022-09-13T00:07:39.439Z,14.55
2022-09-13T00:10:46.535Z,14.53
2022-09-13T00:13:52.445Z,14.53
2022-09-13T00:16:57.807Z,14.57
2022-09-13T00:20:03.759Z,14.54
2022-09-13T00:23:12.422Z,14.55
2022-09-13T00:26:21.539Z,14.55
2022-09-13T00:29:27.454Z,14.56
2022-09-13T00:32:32.793Z,14.61
2022-09-13T00:35:38.573Z,14.60
2022-09-13T00:38:45.544Z,14.54
2022-09-13T00:41:50.986Z,14.57
2022-09-13T00:44:59.320Z,14.59
2022-09-13T00:48:07.428Z,14.59
2022-09-13T00:51:13.730Z,14.59
2022-09-13T00:54:24.327Z,14.52
2022-09-13T00:57:31.193Z,14.58
2022-09-13T01:00:37.020Z,14.63
2022-09-13T01:03:44.826Z,14.63
2022-09-13T01:06:51.359Z,14.62
2022-09-13T01:09:58.452Z,14.58
2022-09-13T01:13:14.931Z,14.63
2022-09-13T01:16:20.447Z,14.64
2022-09-13T01:19:26.048Z,14.58
2022-09-13T01:23:23.530Z,14.59
2022-09-13T01:27:25.376Z,14.58
2022-09-13T01:30:35.691Z,14.57
2022-09-13T01:33:55.786Z,14.61
2022-09-13T01:37:40.114Z,14.56
2022-09-13T01:40:57.541Z,14.57
2022-09-13T01:44:12.680Z,14.56
2022-09-13T01:47:27.118Z,14.56
2022-09-13T01:50:40.770Z,14.56
2022-09-13T01:54:00.170Z,14.59
2022-09-13T01:57:12.178Z,14.59
2022-09-13T02:00:18.856Z,14.63
2022-09-13T02:03:29.794Z,14.57
2022-09-13T02:06:38.141Z,14.53
2022-09-13T02:09:46.297Z,14.54
2022-09-13T02:12:52.887Z,14.59
2022-09-13T02:16:03.638Z,14.58
2022-09-13T02:19:15.530Z,14.62
2022-09-13T02:22:29.081Z,14.62
2022-09-13T02:25:35.850Z,14.64
2022-09-13T02:28:47.183Z,14.64
2022-09-13T02:31:58.407Z,14.62
2022-09-13T02:35:10.527Z,14.65
2022-09-13T02:38:21.847Z,14.62
2022-09-13T02:41:35.663Z,14.70
2022-09-13T02:44:44.822Z,14.71
2022-09-13T02:47:57.965Z,14.68
2022-09-13T02:51:11.675Z,14.74
2022-09-13T02:54:25.827Z,14.76
2022-09-13T02:57:35.527Z,14.74
2022-09-13T03:00:41.126Z,14.75
2022-09-13T03:03:46.643Z,14.76
2022-09-13T03:06:53.513Z,14.83
2022-09-13T03:10:06.305Z,14.80
2022-09-13T03:13:47.161Z,14.79
2022-09-13T03:17:15.655Z,14.89
2022-09-13T03:20:30.362Z,14.84
2022-09-13T03:23:52.040Z,14.90
2022-09-13T03:27:11.027Z,14.90
2022-09-13T03:30:17.971Z,14.94
2022-09-13T03:33:32.473Z,14.90
2022-09-13T03:36:43.357Z,14.90
2022-09-13T03:39:54.859Z,14.98
2022-09-13T03:43:04.361Z,15.00
2022-09-13T03:46:13.456Z,15.03
2022-09-13T03:49:20.689Z,15.05
2022-09-13T03:52:26.566Z,15.11
2022-09-13T03:55:34.532Z,15.14
2022-09-13T03:58:39.946Z,15.15
2022-09-13T04:01:45.416Z,15.21
2022-09-13T04:04:51.461Z,15.26
2022-09-13T04:07:57.024Z,15.28
2022-09-13T04:11:03.663Z,15.28
2022-09-13T04:14:09.082Z,15.32
2022-09-13T04:17:15.745Z,15.32
2022-09-13T04:20:21.283Z,15.37
2022-09-13T04:23:28.542Z,15.40
2022-09-13T04:26:35.991Z,15.41
2022-09-13T04:29:41.847Z,15.40
2022-09-13T04:32:47.033Z,15.42
2022-09-13T04:35:59.121Z,15.44
2022-09-13T04:39:04.702Z,15.45
2022-09-13T04:42:12.678Z,15.50
2022-09-13T04:45:18.178Z,15.51
2022-09-13T04:48:23.421Z,15.51
2022-09-13T04:51:28.859Z,15.53
2022-09-13T04:54:34.457Z,15.58
2022-09-13T04:57:41.155Z,15.59
2022-09-13T05:00:46.430Z,15.64
2022-09-13T05:03:53.526Z,15.69
2022-09-13T05:06:59.239Z,15.67
2022-09-13T05:10:04.770Z,15.73
2022-09-13T05:13:13.773Z,15.73
2022-09-13T05:16:19.108Z,15.73
2022-09-13T05:19:24.831Z,15.78
2022-09-13T05:22:30.665Z,15.81
2022-09-13T05:25:36.066Z,15.83
2022-09-13T05:28:42.701Z,15.81
2022-09-13T05:31:48.547Z,15.84
2022-09-13T05:34:54.280Z,15.82
2022-09-13T05:37:59.609Z,15.84
2022-09-13T05:41:06.845Z,15.91
2022-09-13T05:44:15.836Z,15.89
2022-09-13T05:47:21.176Z,15.90
2022-09-13T05:50:54.169Z,15.95
2022-09-13T05:53:54.760Z,15.97
2022-09-13T05:57:00.229Z,15.95
2022-09-13T06:00:08.526Z,15.95
2022-09-13T06:03:18.611Z,15.92
2022-09-13T06:06:24.920Z,16.01
2022-09-13T06:09:31.071Z,16.00
2022-09-13T06:12:36.634Z,16.04
2022-09-13T06:15:43.546Z,15.97
2022-09-13T06:18:48.968Z,16.04
2022-09-13T06:21:54.528Z,16.01
2022-09-13T06:24:59.971Z,16.06
2022-09-13T06:28:05.780Z,16.06
2022-09-13T06:31:15.752Z,16.02
2022-09-13T06:34:21.419Z,16.05
2022-09-13T06:37:26.596Z,15.98
2022-09-13T06:40:32.698Z,16.05
2022-09-13T06:43:38.451Z,15.98
2022-09-13T06:46:45.385Z,15.95
2022-09-13T06:49:50.814Z,15.91
2022-09-13T06:52:58.156Z,15.86
2022-09-13T06:56:05.954Z,15.87
2022-09-13T06:59:12.283Z,15.84
2022-09-13T07:02:19.106Z,15.89
2022-09-13T07:05:24.396Z,15.91
2022-09-13T07:08:29.713Z,15.94
2022-09-13T07:11:37.713Z,15.76
2022-09-13T07:14:42.987Z,15.76
2022-09-13T07:17:50.033Z,15.76
2022-09-13T07:21:02.390Z,15.75
2022-09-13T07:24:08.353Z,15.76
2022-09-13T07:27:14.931Z,15.82
2022-09-13T07:30:20.347Z,15.73
2022-09-13T07:33:27.525Z,15.84
2022-09-13T07:36:37.364Z,15.84
2022-09-13T07:39:42.741Z,15.82
2022-09-13T07:42:48.209Z,15.78
2022-09-13T07:46:00.846Z,15.80
2022-09-13T07:49:08.511Z,15.87
2022-09-13T07:52:13.760Z,15.94
2022-09-13T07:55:19.098Z,15.82
2022-09-13T07:58:24.377Z,15.79
2022-09-13T08:01:32.054Z,15.86
2022-09-13T08:04:38.959Z,15.77
2022-09-13T08:07:44.158Z,15.66
2022-09-13T08:10:49.687Z,15.68
2022-09-13T08:13:56.049Z,15.74
2022-09-13T08:17:02.068Z,15.71
2022-09-13T08:20:10.569Z,15.67
2022-09-13T08:23:16.858Z,15.81
2022-09-13T08:26:22.758Z,15.78
2022-09-13T08:29:28.002Z,15.70
2022-09-13T08:32:33.633Z,15.70
2022-09-13T08:35:40.485Z,15.69
2022-09-13T08:38:48.545Z,15.68
2022-09-13T08:42:13.117Z,15.72
2022-09-13T08:45:18.679Z,15.68
2022-09-13T08:48:28.111Z,15.73
2022-09-13T08:51:39.313Z,15.67
2022-09-13T08:54:44.801Z,15.64
2022-09-13T08:57:57.107Z,15.48
2022-09-13T09:01:07.756Z,15.57
2022-09-13T09:04:28.830Z,15.54
2022-09-13T09:07:43.709Z,15.60
2022-09-13T09:10:53.194Z,15.52
2022-09-13T09:14:06.733Z,15.50
2022-09-13T09:17:17.635Z,15.55
2022-09-13T09:20:32.322Z,15.50
2022-09-13T09:23:42.562Z,15.48
2022-09-13T09:26:48.006Z,15.36
2022-09-13T09:29:58.204Z,15.44
2022-09-13T09:33:34.155Z,15.50
2022-09-13T09:36:43.453Z,15.44
2022-09-13T09:39:51.179Z,15.50
2022-09-13T09:42:57.053Z,15.48
2022-09-13T09:46:04.421Z,15.51
2022-09-13T09:49:35.998Z,15.58
2022-09-13T09:52:50.785Z,15.68
2022-09-13T09:56:02.885Z,15.70
2022-09-13T09:59:28.401Z,15.59
2022-09-13T10:02:34.425Z,15.71
2022-09-13T10:05:40.033Z,15.74
2022-09-13T10:08:55.057Z,15.73
2022-09-13T10:12:01.802Z,15.91
2022-09-13T10:15:18.019Z,15.90
2022-09-13T10:18:43.443Z,16.00
2022-09-13T10:22:03.059Z,16.11
2022-09-13T10:25:24.796Z,16.13
2022-09-13T10:28:32.937Z,16.13
2022-09-13T10:31:40.130Z,16.05
2022-09-13T10:34:47.905Z,15.96
2022-09-13T10:37:54.510Z,15.97
2022-09-13T10:41:02.641Z,15.96
2022-09-13T10:44:28.021Z,15.96
2022-09-13T10:47:36.369Z,16.01
2022-09-13T10:50:41.807Z,16.33
2022-09-13T10:53:47.496Z,16.41
2022-09-13T10:56:52.973Z,16.43
2022-09-13T11:00:00.451Z,16.46
2022-09-13T11:03:25.951Z,16.57
2022-09-13T11:06:37.158Z,16.48
2022-09-13T11:09:49.127Z,16.43
2022-09-13T11:13:02.839Z,16.47
2022-09-13T11:16:28.927Z,16.48
2022-09-13T11:20:11.378Z,16.49
2022-09-13T11:23:50.564Z,16.41
2022-09-13T11:27:03.478Z,16.41
2022-09-13T11:30:17.489Z,16.43
2022-09-13T11:33:41.762Z,16.35
2022-09-13T11:37:03.915Z,16.53
2022-09-13T11:40:33.339Z,16.71
2022-09-13T11:43:56.310Z,16.78
2022-09-13T11:47:09.834Z,16.75
2022-09-13T11:50:28.637Z,16.72
2022-09-13T11:53:59.883Z,16.75
2022-09-13T11:57:10.066Z,16.61
2022-09-13T12:00:23.766Z,16.57
2022-09-13T12:03:34.899Z,16.42
2022-09-13T12:06:43.555Z,16.43
2022-09-13T12:09:58.831Z,16.38
2022-09-13T12:13:05.306Z,16.35
2022-09-13T12:16:16.376Z,16.21
2022-09-13T12:19:25.218Z,16.21
2022-09-13T12:22:35.531Z,16.17
2022-09-13T12:25:47.886Z,16.13
2022-09-13T12:28:56.829Z,16.18
2022-09-13T12:32:06.494Z,16.08
2022-09-13T12:35:21.223Z,16.09
2022-09-13T12:38:59.146Z,15.98
2022-09-13T12:42:45.493Z,16.07
2022-09-13T12:46:10.685Z,15.93
2022-09-13T12:49:29.475Z,15.92
2022-09-13T12:52:42.367Z,15.89
2022-09-13T12:56:03.900Z,15.93
2022-09-13T12:59:57.396Z,15.94
2022-09-13T13:03:11.713Z,15.91
2022-09-13T13:06:29.661Z,15.87
2022-09-13T13:09:42.430Z,15.91
2022-09-13T13:12:49.166Z,15.86
2022-09-13T13:16:25.330Z,15.77
2022-09-13T13:19:33.730Z,15.79
2022-09-13T13:22:52.797Z,15.73
2022-09-13T13:26:46.106Z,15.76
2022-09-13T13:30:43.136Z,15.69
2022-09-13T13:33:50.369Z,15.65
2022-09-13T13:37:03.534Z,15.64
2022-09-13T13:40:29.254Z,15.70
2022-09-13T13:43:35.868Z,15.77
2022-09-13T13:46:43.078Z,15.72
2022-09-13T13:49:53.605Z,16.07
2022-09-13T13:53:06.232Z,16.25
2022-09-13T13:56:32.495Z,16.35
2022-09-13T13:59:38.358Z,16.48
2022-09-13T14:02:53.379Z,16.67
2022-09-13T14:06:10.298Z,16.79
2022-09-13T14:09:33.395Z,16.72
2022-09-13T14:13:05.713Z,16.73
2022-09-13T14:16:29.346Z,16.67
2022-09-13T14:19:43.985Z,16.66
2022-09-13T14:22:49.853Z,16.61
2022-09-13T14:26:00.803Z,16.62
2022-09-13T14:29:10.026Z,16.57
2022-09-13T14:32:22.175Z,16.62
2022-09-13T14:35:32.550Z,16.75
2022-09-13T14:38:38.450Z,16.67
2022-09-13T14:41:43.641Z,16.70
2022-09-13T14:44:49.552Z,16.76
2022-09-13T14:47:58.270Z,16.81
2022-09-13T14:51:13.592Z,16.91
2022-09-13T14:54:22.899Z,16.89
2022-09-13T14:57:33.918Z,16.84
2022-09-13T15:00:53.499Z,16.88
2022-09-13T15:04:01.164Z,16.98
2022-09-13T15:07:22.288Z,16.95
2022-09-13T15:10:31.185Z,16.95
2022-09-13T15:13:37.912Z,16.85
2022-09-13T15:16:50.141Z,16.96
2022-09-13T15:20:13.923Z,16.98
2022-09-13T15:23:24.931Z,16.96
2022-09-13T15:26:30.207Z,16.86
2022-09-13T15:29:37.629Z,16.91
2022-09-13T15:32:45.166Z,16.90
2022-09-13T15:35:50.786Z,16.95
2022-09-13T15:39:17.931Z,16.99
2022-09-13T15:42:23.246Z,16.94
2022-09-13T15:45:28.506Z,17.02
2022-09-13T15:48:36.357Z,16.94
2022-09-13T15:51:44.578Z,16.98
2022-09-13T15:54:52.381Z,16.98
2022-09-13T15:57:57.724Z,16.89
2022-09-13T16:01:03.941Z,16.93
2022-09-13T16:04:09.530Z,16.90
2022-09-13T16:07:14.965Z,16.90
2022-09-13T16:10:23.729Z,16.84
2022-09-13T16:13:29.065Z,16.81
2022-09-13T16:16:34.662Z,16.74
2022-09-13T16:19:45.447Z,16.72
2022-09-13T16:22:50.933Z,16.73
2022-09-13T16:25:59.371Z,16.58
2022-09-13T16:29:05.061Z,16.57
2022-09-13T16:32:12.795Z,16.56
2022-09-13T16:35:18.842Z,16.55
2022-09-13T16:38:24.270Z,16.51
2022-09-13T16:41:31.136Z,16.43
2022-09-13T16:44:36.770Z,16.45
2022-09-13T16:47:42.374Z,16.42
2022-09-13T16:50:47.629Z,16.41
2022-09-13T16:53:54.373Z,16.36
2022-09-13T16:57:01.349Z,16.33
2022-09-13T17:00:11.522Z,16.30
2022-09-13T17:03:16.894Z,16.29
2022-09-13T17:06:24.079Z,16.23
2022-09-13T17:09:30.853Z,16.22
2022-09-13T17:12:37.244Z,16.24
2022-09-13T17:15:42.494Z,16.22
2022-09-13T17:18:47.860Z,16.21
2022-09-13T17:21:57.424Z,16.26
2022-09-13T17:25:02.658Z,16.17
2022-09-13T17:28:09.339Z,16.22
2022-09-13T17:31:14.927Z,16.25
2022-09-13T17:34:20.418Z,16.17
2022-09-13T17:37:25.833Z,16.12
2022-09-13T17:40:32.119Z,16.09
2022-09-13T17:43:39.462Z,16.09
2022-09-13T17:46:45.104Z,16.11
2022-09-13T17:49:50.133Z,16.00
2022-09-13T17:52:55.490Z,16.02
2022-09-13T17:56:00.570Z,16.01
2022-09-13T17:59:10.391Z,15.90
2022-09-13T18:02:15.638Z,15.96
2022-09-13T18:05:21.138Z,15.96
2022-09-13T18:08:26.902Z,15.85
2022-09-13T18:11:32.116Z,15.86
2022-09-13T18:14:38.602Z,15.68
2022-09-13T18:17:43.826Z,15.67
2022-09-13T18:20:49.038Z,15.59
2022-09-13T18:23:58.268Z,15.61
2022-09-13T18:27:03.644Z,15.53
2022-09-13T18:30:11.739Z,15.50
2022-09-13T18:33:20.984Z,15.45
2022-09-13T18:36:27.157Z,15.43
2022-09-13T18:39:32.140Z,15.45
2022-09-13T18:42:40.989Z,15.41
2022-09-13T18:45:56.222Z,15.37
2022-09-13T18:49:03.149Z,15.38
2022-09-13T18:52:08.293Z,15.42
2022-09-13T18:55:13.818Z,15.35
2022-09-13T18:58:19.170Z,15.38
2022-09-13T19:01:28.068Z,15.37
2022-09-13T19:04:36.157Z,15.42
2022-09-13T19:07:42.216Z,15.36
2022-09-13T19:10:47.479Z,15.39
2022-09-13T19:13:53.091Z,15.42
2022-09-13T19:17:02.983Z,15.21
2022-09-13T19:20:09.814Z,15.18
2022-09-13T19:23:16.512Z,15.27
2022-09-13T19:26:24.539Z,15.07
2022-09-13T19:29:29.552Z,15.14
2022-09-13T19:32:36.658Z,15.28
2022-09-13T19:35:41.949Z,15.29
2022-09-13T19:38:47.384Z,15.33
2022-09-13T19:41:53.578Z,15.31
2022-09-13T19:44:58.856Z,15.35
2022-09-13T19:48:37.741Z,15.36
2022-09-13T19:51:33.887Z,15.33
2022-09-13T19:54:38.870Z,15.35
2022-09-13T19:57:45.118Z,15.23
2022-09-13T20:00:50.398Z,15.28
2022-09-13T20:03:58.869Z,15.22
2022-09-13T20:07:03.838Z,15.31
2022-09-13T20:10:10.102Z,15.26
2022-09-13T20:13:15.667Z,15.25
2022-09-13T20:16:22.931Z,15.25
2022-09-13T20:19:41.586Z,15.26
2022-09-13T20:22:47.969Z,15.23
2022-09-13T20:25:52.910Z,15.26
2022-09-13T20:29:05.121Z,15.20
2022-09-13T20:32:11.324Z,15.23
2022-09-13T20:35:18.283Z,15.11
2022-09-13T20:38:23.784Z,15.16
2022-09-13T20:41:30.209Z,15.19
2022-09-13T20:44:35.138Z,15.08
2022-09-13T20:47:40.381Z,15.09
2022-09-13T20:50:54.962Z,15.11
2022-09-13T20:54:01.126Z,15.11
2022-09-13T20:57:06.720Z,15.05
2022-09-13T21:00:14.040Z,14.97
2022-09-13T21:03:19.587Z,15.03
2022-09-13T21:06:28.791Z,14.96
2022-09-13T21:09:32.777Z,14.86
2022-09-13T21:12:38.579Z,14.86
2022-09-13T21:15:43.837Z,14.89
2022-09-13T21:18:49.870Z,14.86
2022-09-13T21:21:56.224Z,14.84
2022-09-13T21:25:01.439Z,14.90
2022-09-13T21:28:06.604Z,14.90
2022-09-13T21:31:19.558Z,14.92
2022-09-13T21:34:27.372Z,14.92
2022-09-13T21:37:34.055Z,14.87
2022-09-13T21:40:39.314Z,14.81
2022-09-13T21:43:45.211Z,14.80
2022-09-13T21:46:51.464Z,14.81
2022-09-13T21:49:56.739Z,14.81
2022-09-13T21:53:03.398Z,14.76
2022-09-13T21:56:12.018Z,14.76
2022-09-13T21:59:18.519Z,14.73
2022-09-13T22:02:23.861Z,14.74
2022-09-13T22:05:29.595Z,14.82
2022-09-13T22:08:39.345Z,14.62
2022-09-13T22:11:46.606Z,14.62
2022-09-13T22:14:51.878Z,14.72
2022-09-13T22:17:57.165Z,14.75
2022-09-13T22:21:15.398Z,14.73
2022-09-13T22:24:24.123Z,14.77
2022-09-13T22:27:29.558Z,14.79
2022-09-13T22:30:36.429Z,14.57
2022-09-13T22:33:42.050Z,14.78
2022-09-13T22:36:47.423Z,14.80
2022-09-13T22:39:54.329Z,14.74
2022-09-13T22:42:59.541Z,14.63
2022-09-13T22:46:07.502Z,14.65
2022-09-13T22:49:14.726Z,14.66
2022-09-13T22:52:20.523Z,14.71
2022-09-13T22:55:27.166Z,14.72
2022-09-13T22:58:32.750Z,14.57
2022-09-13T23:01:38.354Z,14.51
2022-09-13T23:04:43.682Z,14.57
2022-09-13T23:07:48.982Z,14.59
2022-09-13T23:10:56.075Z,14.49
2022-09-13T23:14:03.183Z,14.51
2022-09-13T23:17:08.709Z,14.51
2022-09-13T23:20:14.815Z,14.45
2022-09-13T23:23:20.674Z,14.59
2022-09-13T23:26:27.664Z,14.61
2022-09-13T23:29:32.963Z,14.64
2022-09-13T23:32:38.254Z,14.58
2022-09-13T23:35:45.051Z,14.56
2022-09-13T23:38:52.745Z,14.58
2022-09-13T23:41:59.439Z,14.62
2022-09-13T23:45:05.260Z,14.59
2022-09-13T23:48:15.747Z,14.64
2022-09-13T23:51:24.263Z,14.60
2022-09-13T23:54:29.570Z,14.62
2022-09-13T23:57:36.191Z,14.54
